createdAt,value
2018-12-12T00:00:25.018Z,98337.66
2018-12-12T00:02:56.452Z,98337.53
2018-12-12T00:05:28.042Z,98340.80
2018-12-12T00:07:59.650Z,98341.98
2018-12-12T00:10:31.158Z,98344.47
2018-12-12T00:13:02.568Z,98346.17
2018-12-12T00:15:34.327Z,98349.41
2018-12-12T00:18:06.033Z,98348.45
2018-12-12T00:20:37.432Z,98346.86
2018-12-12T00:23:09.019Z,98340.66
2018-12-12T00:25:40.446Z,98338.54
2018-12-12T00:28:12.030Z,98345.23
2018-12-12T00:30:43.298Z,98347.05
2018-12-12T00:33:14.842Z,98349.05
2018-12-12T00:35:46.391Z,98355.42
2018-12-12T00:38:17.996Z,98353.08
2018-12-12T00:40:49.491Z,98353.03
2018-12-12T00:43:21.042Z,98351.33
2018-12-12T00:45:52.510Z,98352.64
2018-12-12T00:48:24.115Z,98353.51
2018-12-12T00:50:55.610Z,98350.11
2018-12-12T00:53:27.155Z,98353.37
2018-12-12T00:55:58.619Z,98347.50
2018-12-12T00:58:30.360Z,98345.56
2018-12-12T01:01:01.832Z,98348.22
2018-12-12T01:03:33.414Z,98343.97
2018-12-12T01:06:04.831Z,98348.34
2018-12-12T01:08:36.375Z,98350.39
2018-12-12T01:11:12.728Z,98358.78
2018-12-12T01:13:44.307Z,98356.25
2018-12-12T01:16:15.726Z,98355.42
2018-12-12T01:18:47.319Z,98355.03
2018-12-12T01:21:18.731Z,98361.90
2018-12-12T01:23:50.321Z,98356.94
2018-12-12T01:26:21.867Z,98358.51
2018-12-12T01:28:53.434Z,98363.89
2018-12-12T01:31:24.783Z,98364.02
2018-12-12T01:33:56.306Z,98367.54
2018-12-12T01:36:27.888Z,98368.02
2018-12-12T01:38:59.334Z,98367.47
2018-12-12T01:41:30.891Z,98368.72
2018-12-12T01:44:02.357Z,98370.05
2018-12-12T01:46:33.943Z,98361.92
2018-12-12T01:49:05.446Z,98359.34
2018-12-12T01:51:36.853Z,98360.19
2018-12-12T01:54:08.472Z,98362.31
2018-12-12T01:56:40.060Z,98362.33
2018-12-12T01:59:11.560Z,98359.16
2018-12-12T02:01:43.205Z,98356.02
2018-12-12T02:04:14.676Z,98361.67
2018-12-12T02:06:46.220Z,98367.81
2018-12-12T02:09:17.669Z,98363.51
2018-12-12T02:11:49.215Z,98365.06
2018-12-12T02:14:20.679Z,98360.61
2018-12-12T02:16:52.336Z,98361.87
2018-12-12T02:19:24.051Z,98361.22
2018-12-12T02:21:55.649Z,98366.06
2018-12-12T02:24:27.190Z,98363.11
2018-12-12T02:26:58.741Z,98358.53
2018-12-12T02:29:30.304Z,98363.72
2018-12-12T02:32:02.979Z,98355.53
2018-12-12T02:34:34.435Z,98356.59
2018-12-12T02:37:06.049Z,98357.06
2018-12-12T02:39:37.567Z,98359.86
2018-12-12T02:42:09.098Z,98359.20
2018-12-12T02:44:40.550Z,98359.49
2018-12-12T02:47:12.101Z,98360.13
2018-12-12T02:49:43.552Z,98360.49
2018-12-12T02:52:15.106Z,98360.41
2018-12-12T02:54:46.564Z,98358.69
2018-12-12T02:57:18.113Z,98357.13
2018-12-12T02:59:49.577Z,98357.27
2018-12-12T03:02:21.166Z,98360.13
2018-12-12T03:04:52.676Z,98353.45
2018-12-12T03:07:24.229Z,98357.77
2018-12-12T03:09:55.682Z,98363.27
2018-12-12T03:12:27.229Z,98358.58
2018-12-12T03:14:58.699Z,98364.16
2018-12-12T03:17:30.240Z,98367.59
2018-12-12T03:20:01.692Z,98368.70
2018-12-12T03:22:33.870Z,98366.09
2018-12-12T03:25:05.555Z,98367.24
2018-12-12T03:27:37.043Z,98365.09
2018-12-12T03:30:08.983Z,98368.02
2018-12-12T03:32:40.689Z,98365.52
2018-12-12T03:35:12.158Z,98364.59
2018-12-12T03:37:43.643Z,98366.72
2018-12-12T03:40:15.311Z,98367.39
2018-12-12T03:42:47.260Z,98370.74
2018-12-12T03:45:18.813Z,98369.20
2018-12-12T03:47:50.319Z,98365.20
2018-12-12T03:50:21.925Z,98370.67
2018-12-12T03:52:53.441Z,98371.11
2018-12-12T03:55:25.138Z,98371.94
2018-12-12T03:57:56.709Z,98366.58
2018-12-12T04:00:28.387Z,98366.98
2018-12-12T04:02:59.846Z,98369.52
2018-12-12T04:05:31.494Z,98373.97
2018-12-12T04:08:02.918Z,98372.55
2018-12-12T04:10:34.498Z,98373.25
2018-12-12T04:13:05.921Z,98377.66
2018-12-12T04:15:37.811Z,98373.02
2018-12-12T04:18:09.429Z,98376.98
2018-12-12T04:20:41.202Z,98376.02
2018-12-12T04:23:12.787Z,98377.34
2018-12-12T04:25:44.255Z,98381.41
2018-12-12T04:28:15.790Z,98380.48
2018-12-12T04:30:47.246Z,98381.19
2018-12-12T04:33:18.847Z,98382.89
2018-12-12T04:35:50.355Z,98375.89
2018-12-12T04:38:21.960Z,98379.48
2018-12-12T04:40:53.478Z,98372.93
2018-12-12T04:43:25.070Z,98376.56
2018-12-12T04:45:56.566Z,98375.44
2018-12-12T04:48:28.184Z,98382.94
2018-12-12T04:50:59.684Z,98382.14
2018-12-12T04:53:31.221Z,98385.84
2018-12-12T04:56:02.687Z,98390.55
2018-12-12T04:58:34.188Z,98393.81
2018-12-12T05:01:05.698Z,98393.34
2018-12-12T05:03:37.296Z,98389.38
2018-12-12T05:06:08.802Z,98396.59
2018-12-12T05:08:40.395Z,98392.52
2018-12-12T05:11:11.807Z,98393.50
2018-12-12T05:13:43.407Z,98394.45
2018-12-12T05:16:14.917Z,98400.16
2018-12-12T05:18:46.319Z,98403.33
2018-12-12T05:21:17.918Z,98401.39
2018-12-12T05:23:49.459Z,98408.51
2018-12-12T05:26:20.911Z,98407.64
2018-12-12T05:28:52.336Z,98407.65
2018-12-12T05:31:23.914Z,98407.90
2018-12-12T05:33:55.368Z,98403.78
2018-12-12T05:36:26.922Z,98405.16
2018-12-12T05:38:58.477Z,98406.05
2018-12-12T05:41:30.251Z,98412.22
2018-12-12T05:44:01.852Z,98409.79
2018-12-12T05:46:33.250Z,98415.06
2018-12-12T05:49:04.680Z,98414.83
2018-12-12T05:51:36.248Z,98418.55
2018-12-12T05:54:07.855Z,98415.19
2018-12-12T05:56:39.364Z,98418.70
2018-12-12T05:59:10.971Z,98414.72
2018-12-12T06:01:42.579Z,98410.54
2018-12-12T06:04:14.956Z,98421.94
2018-12-12T06:06:46.496Z,98425.02
2018-12-12T06:09:17.963Z,98426.20
2018-12-12T06:11:49.504Z,98425.95
2018-12-12T06:14:20.958Z,98427.15
2018-12-12T06:16:52.571Z,98428.61
2018-12-12T06:19:24.066Z,98425.55
2018-12-12T06:21:55.620Z,98427.90
2018-12-12T06:24:27.071Z,98429.78
2018-12-12T06:26:58.623Z,98434.05
2018-12-12T06:29:30.070Z,98434.59
2018-12-12T06:32:01.624Z,98433.55
2018-12-12T06:34:33.082Z,98441.80
2018-12-12T06:37:04.630Z,98442.00
2018-12-12T06:39:36.087Z,98443.09
2018-12-12T06:42:07.691Z,98440.66
2018-12-12T06:44:39.084Z,98438.80
2018-12-12T06:47:10.504Z,98444.66
2018-12-12T06:49:42.082Z,98443.94
2018-12-12T06:52:13.506Z,98446.09
2018-12-12T06:54:45.090Z,98442.06
2018-12-12T06:57:16.706Z,98447.50
2018-12-12T06:59:48.201Z,98446.14
2018-12-12T07:02:19.720Z,98450.63
2018-12-12T07:04:51.290Z,98449.95
2018-12-12T07:07:23.007Z,98454.02
2018-12-12T07:09:54.515Z,98462.27
2018-12-12T07:12:25.943Z,98458.33
2018-12-12T07:14:57.527Z,98456.66
2018-12-12T07:17:28.983Z,98465.50
2018-12-12T07:20:00.530Z,98468.66
2018-12-12T07:22:31.956Z,98464.05
2018-12-12T07:25:03.541Z,98462.95
2018-12-12T07:27:34.964Z,98460.80
2018-12-12T07:30:07.698Z,98469.35
2018-12-12T07:32:39.330Z,98470.86
2018-12-12T07:35:10.937Z,98472.28
2018-12-12T07:37:42.619Z,98474.20
2018-12-12T07:40:14.195Z,98473.88
2018-12-12T07:42:45.764Z,98473.47
2018-12-12T07:45:17.360Z,98479.20
2018-12-12T07:47:48.828Z,98480.85
2018-12-12T07:50:20.413Z,98477.06
2018-12-12T07:52:51.843Z,98479.63
2018-12-12T07:55:23.432Z,98475.06
2018-12-12T07:57:54.836Z,98477.66
2018-12-12T08:00:26.421Z,98476.62
2018-12-12T08:02:57.855Z,98472.88
2018-12-12T08:05:29.423Z,98473.44
2018-12-12T08:08:01.042Z,98482.27
2018-12-12T08:10:32.550Z,98484.28
2018-12-12T08:13:04.086Z,98482.46
2018-12-12T08:15:35.569Z,98484.63
2018-12-12T08:18:07.097Z,98481.56
2018-12-12T08:20:38.511Z,98484.91
2018-12-12T08:23:10.618Z,98486.41
2018-12-12T08:25:42.359Z,98488.33
2018-12-12T08:28:13.835Z,98493.03
2018-12-12T08:30:45.439Z,98490.63
2018-12-12T08:33:16.930Z,98488.42
2018-12-12T08:35:48.479Z,98498.30
2018-12-12T08:38:19.940Z,98497.58
2018-12-12T08:40:51.547Z,98502.17
2018-12-12T08:43:23.043Z,98498.63
2018-12-12T08:45:54.447Z,98498.24
2018-12-12T08:48:26.044Z,98497.44
2018-12-12T08:50:57.915Z,98503.75
2018-12-12T08:53:29.327Z,98505.22
2018-12-12T08:56:00.903Z,98512.23
2018-12-12T08:58:32.467Z,98506.18
2018-12-12T09:01:04.011Z,98509.91
2018-12-12T09:03:35.575Z,98509.52
2018-12-12T09:06:07.245Z,98515.77
2018-12-12T09:08:38.839Z,98513.39
2018-12-12T09:11:10.341Z,98520.86
2018-12-12T09:13:41.957Z,98518.71
2018-12-12T09:16:13.464Z,98515.36
2018-12-12T09:18:45.073Z,98518.89
2018-12-12T09:21:16.573Z,98516.59
2018-12-12T09:23:48.175Z,98524.25
2018-12-12T09:26:19.673Z,98524.56
2018-12-12T09:28:51.319Z,98523.02
2018-12-12T09:31:22.774Z,98520.39
2018-12-12T09:33:54.394Z,98521.73
2018-12-12T09:36:25.867Z,98522.30
2018-12-12T09:38:57.431Z,98518.45
2018-12-12T09:41:28.848Z,98513.24
2018-12-12T09:44:00.451Z,98518.20
2018-12-12T09:46:31.987Z,98519.14
2018-12-12T09:49:03.552Z,98515.17
2018-12-12T09:51:35.153Z,98515.21
2018-12-12T09:54:06.656Z,98513.34
2018-12-12T09:56:38.202Z,98516.00
2018-12-12T09:59:09.760Z,98506.57
2018-12-12T10:01:41.227Z,98510.50
2018-12-12T10:04:12.797Z,98506.33
2018-12-12T10:06:44.269Z,98507.81
2018-12-12T10:09:16.091Z,98502.95
2018-12-12T10:11:47.647Z,98513.61
2018-12-12T10:14:19.085Z,98505.11
2018-12-12T10:16:50.626Z,98509.19
2018-12-12T10:19:22.090Z,98498.27
2018-12-12T10:21:54.158Z,98501.03
2018-12-12T10:24:25.703Z,98503.64
2018-12-12T10:26:57.271Z,98501.88
2018-12-12T10:29:28.680Z,98497.06
2018-12-12T10:32:00.275Z,98496.05
2018-12-12T10:34:31.683Z,98490.28
2018-12-12T10:37:03.283Z,98496.72
2018-12-12T10:39:34.743Z,98499.15
2018-12-12T10:42:06.397Z,98500.25
2018-12-12T10:44:37.987Z,98495.08
2018-12-12T10:47:09.500Z,98491.42
2018-12-12T10:49:41.105Z,98494.78
2018-12-12T10:52:12.617Z,98492.33
2018-12-12T10:54:44.206Z,98485.28
2018-12-12T10:57:15.827Z,98487.20
2018-12-12T10:59:47.416Z,98489.00
2018-12-12T11:02:23.921Z,98493.08
2018-12-12T11:04:55.476Z,98483.98
2018-12-12T11:07:27.038Z,98480.91
2018-12-12T11:09:58.607Z,98477.23
2018-12-12T11:12:30.023Z,98476.27
2018-12-12T11:15:01.869Z,98476.14
2018-12-12T11:17:33.462Z,98478.53
2018-12-12T11:20:05.339Z,98473.55
2018-12-12T11:22:36.864Z,98473.25
2018-12-12T11:25:08.347Z,98472.51
2018-12-12T11:27:39.870Z,98470.84
2018-12-12T11:30:11.344Z,98464.89
2018-12-12T11:32:42.866Z,98462.77
2018-12-12T11:35:14.346Z,98457.20
2018-12-12T11:37:45.947Z,98452.73
2018-12-12T11:40:17.438Z,98451.53
2018-12-12T11:42:49.003Z,98452.47
2018-12-12T11:45:20.454Z,98443.08
2018-12-12T11:47:52.164Z,98445.34
2018-12-12T11:50:23.624Z,98440.39
2018-12-12T11:52:55.205Z,98436.44
2018-12-12T11:55:26.643Z,98436.89
2018-12-12T11:57:58.215Z,98440.95
2018-12-12T12:00:29.722Z,98427.01
2018-12-12T12:03:01.329Z,98411.36
2018-12-12T12:05:32.751Z,98396.14
2018-12-12T12:08:04.353Z,98391.30
2018-12-12T12:10:36.048Z,98382.70
2018-12-12T12:13:07.658Z,98369.19
2018-12-12T12:15:39.265Z,98366.18
2018-12-12T12:18:10.767Z,98373.20
2018-12-12T12:20:42.320Z,98380.68
2018-12-12T12:23:13.768Z,98388.33
2018-12-12T12:25:45.367Z,98395.75
2018-12-12T12:28:16.873Z,98404.58
2018-12-12T12:30:48.544Z,98405.05
2018-12-12T12:33:19.978Z,98402.97
2018-12-12T12:35:51.521Z,98410.50
2018-12-12T12:38:22.934Z,98407.33
2018-12-12T12:40:54.527Z,98409.36
2018-12-12T12:43:25.955Z,98411.80
2018-12-12T12:45:57.641Z,98404.60
2018-12-12T12:48:29.187Z,98403.61
2018-12-12T12:51:00.725Z,98409.76
2018-12-12T12:53:32.350Z,98405.86
2018-12-12T12:56:03.860Z,98398.45
2018-12-12T12:58:35.473Z,98405.92
2018-12-12T13:01:06.976Z,98401.94
2018-12-12T13:03:38.688Z,98400.59
2018-12-12T13:06:10.179Z,98398.91
2018-12-12T13:08:41.727Z,98404.73
2018-12-12T13:11:14.930Z,98398.52
2018-12-12T13:13:46.771Z,98395.38
2018-12-12T13:16:18.201Z,98392.58
2018-12-12T13:18:49.799Z,98395.23
2018-12-12T13:21:21.093Z,98394.76
2018-12-12T13:23:52.683Z,98396.09
2018-12-12T13:26:24.145Z,98391.55
2018-12-12T13:28:55.653Z,98393.73
2018-12-12T13:31:27.155Z,98391.89
2018-12-12T13:33:58.701Z,98393.33
2018-12-12T13:36:30.163Z,98391.95
2018-12-12T13:39:01.705Z,98393.09
2018-12-12T13:41:33.160Z,98392.83
2018-12-12T13:44:04.829Z,98386.84
2018-12-12T13:46:36.263Z,98386.44
2018-12-12T13:49:07.834Z,98395.69
2018-12-12T13:51:39.282Z,98391.63
2018-12-12T13:54:10.881Z,98388.17
2018-12-12T13:56:42.382Z,98392.02
2018-12-12T13:59:13.996Z,98391.54
2018-12-12T14:01:45.592Z,98392.42
2018-12-12T14:04:22.555Z,98394.09
2018-12-12T14:06:50.916Z,98391.70
2018-12-12T14:09:22.402Z,98395.86
2018-12-12T14:11:54.017Z,98397.73
2018-12-12T14:14:25.515Z,98390.72
2018-12-12T14:16:57.048Z,98393.96
2018-12-12T14:19:28.523Z,98390.39
2018-12-12T14:22:00.073Z,98392.61
2018-12-12T14:24:31.531Z,98390.77
2018-12-12T14:27:03.067Z,98385.17
2018-12-12T14:29:34.526Z,98384.47
2018-12-12T14:32:06.086Z,98391.44
2018-12-12T14:34:37.551Z,98394.52
2018-12-12T14:37:09.138Z,98396.77
2018-12-12T14:39:40.542Z,98395.06
2018-12-12T14:42:12.078Z,98396.06
2018-12-12T14:44:43.550Z,98399.89
2018-12-12T14:47:15.147Z,98403.75
2018-12-12T14:49:46.670Z,98410.31
2018-12-12T14:52:18.255Z,98409.42
2018-12-12T14:54:49.750Z,98410.05
2018-12-12T14:57:21.956Z,98417.98
2018-12-12T14:59:53.691Z,98426.97
2018-12-12T15:02:25.132Z,98426.58
2018-12-12T15:04:56.740Z,98429.75
2018-12-12T15:07:28.154Z,98427.31
2018-12-12T15:09:59.688Z,98427.62
2018-12-12T15:12:31.247Z,98424.88
2018-12-12T15:15:02.670Z,98428.26
2018-12-12T15:17:34.246Z,98416.80
2018-12-12T15:20:06.259Z,98414.89
2018-12-12T15:22:37.683Z,98419.31
2018-12-12T15:25:09.228Z,98421.25
2018-12-12T15:27:40.692Z,98419.96
2018-12-12T15:30:12.285Z,98413.28
2018-12-12T15:32:43.784Z,98413.55
2018-12-12T15:35:15.327Z,98416.70
2018-12-12T15:37:46.801Z,98424.64
2018-12-12T15:40:18.389Z,98425.88
2018-12-12T15:42:49.796Z,98422.91
2018-12-12T15:45:21.409Z,98421.08
2018-12-12T15:47:52.908Z,98424.17
2018-12-12T15:50:24.716Z,98431.36
2018-12-12T15:52:56.228Z,98429.66
2018-12-12T15:55:27.767Z,98430.70
2018-12-12T15:57:59.230Z,98432.97
2018-12-12T16:00:31.245Z,98439.92
2018-12-12T16:03:02.967Z,98441.14
2018-12-12T16:05:34.399Z,98436.58
2018-12-12T16:08:05.996Z,98439.86
2018-12-12T16:10:37.499Z,98431.86
2018-12-12T16:13:09.109Z,98434.97
2018-12-12T16:15:40.702Z,98432.36
2018-12-12T16:18:12.150Z,98431.92
2018-12-12T16:20:43.699Z,98432.88
2018-12-12T16:23:15.139Z,98433.59
2018-12-12T16:25:46.662Z,98434.06
2018-12-12T16:28:18.110Z,98434.84
2018-12-12T16:30:49.624Z,98433.33
2018-12-12T16:33:21.046Z,98432.44
2018-12-12T16:35:52.627Z,98434.45
2018-12-12T16:38:24.175Z,98433.38
2018-12-12T16:40:55.741Z,98437.52
2018-12-12T16:43:27.360Z,98432.90
2018-12-12T16:45:58.940Z,98433.36
2018-12-12T16:48:30.352Z,98430.37
2018-12-12T16:51:01.962Z,98426.80
2018-12-12T16:53:33.379Z,98429.11
2018-12-12T16:56:04.963Z,98429.55
2018-12-12T16:58:36.571Z,98430.44
2018-12-12T17:01:08.078Z,98431.15
2018-12-12T17:03:39.670Z,98425.22
2018-12-12T17:06:11.187Z,98422.59
2018-12-12T17:08:42.782Z,98426.75
2018-12-12T17:11:14.325Z,98412.15
2018-12-12T17:13:45.881Z,98415.75
2018-12-12T17:16:17.381Z,98419.88
2018-12-12T17:18:48.995Z,98414.57
2018-12-12T17:21:20.602Z,98419.22
2018-12-12T17:23:52.210Z,98415.32
2018-12-12T17:26:23.711Z,98417.22
2018-12-12T17:28:55.311Z,98419.00
2018-12-12T17:31:26.812Z,98413.41
2018-12-12T17:33:58.523Z,98421.56
2018-12-12T17:36:30.036Z,98415.44
2018-12-12T17:39:01.638Z,98414.25
2018-12-12T17:41:33.144Z,98414.85
2018-12-12T17:44:04.585Z,98411.04
2018-12-12T17:46:36.146Z,98413.20
2018-12-12T17:49:07.607Z,98412.48
2018-12-12T17:51:39.141Z,98410.42
2018-12-12T17:54:10.603Z,98409.07
2018-12-12T17:56:42.242Z,98410.00
2018-12-12T17:59:13.718Z,98401.89
2018-12-12T18:01:45.282Z,98403.70
2018-12-12T18:04:16.723Z,98400.10
2018-12-12T18:06:48.219Z,98410.61
2018-12-12T18:09:19.715Z,98412.63
2018-12-12T18:11:51.260Z,98416.91
2018-12-12T18:14:22.720Z,98413.92
2018-12-12T18:16:54.271Z,98414.37
2018-12-12T18:19:25.728Z,98411.52
2018-12-12T18:21:57.295Z,98414.36
2018-12-12T18:24:28.745Z,98411.02
2018-12-12T18:27:00.281Z,98410.80
2018-12-12T18:29:31.752Z,98408.66
2018-12-12T18:32:03.747Z,98406.16
2018-12-12T18:34:35.154Z,98407.92
2018-12-12T18:37:06.585Z,98407.84
2018-12-12T18:39:38.146Z,98412.33
2018-12-12T18:42:09.720Z,98413.59
2018-12-12T18:44:41.170Z,98405.17
2018-12-12T18:47:12.718Z,98405.58
2018-12-12T18:49:44.260Z,98399.52
2018-12-12T18:52:15.820Z,98407.27
2018-12-12T18:54:47.380Z,98406.27
2018-12-12T18:57:18.922Z,98411.12
2018-12-12T18:59:51.683Z,98414.27
2018-12-12T19:02:23.187Z,98406.33
2018-12-12T19:04:54.578Z,98402.82
2018-12-12T19:07:26.179Z,98401.58
2018-12-12T19:09:57.590Z,98401.52
2018-12-12T19:12:29.165Z,98404.94
2018-12-12T19:15:03.544Z,98405.59
2018-12-12T19:17:35.132Z,98399.94
2018-12-12T19:20:07.938Z,98410.14
2018-12-12T19:22:39.391Z,98413.86
2018-12-12T19:25:11.356Z,98416.53
2018-12-12T19:27:42.811Z,98418.06
2018-12-12T19:30:14.403Z,98415.56
2018-12-12T19:32:45.907Z,98412.09
2018-12-12T19:35:17.319Z,98412.80
2018-12-12T19:37:48.898Z,98412.51
2018-12-12T19:40:20.523Z,98409.37
2018-12-12T19:42:52.136Z,98412.38
2018-12-12T19:45:23.749Z,98405.67
2018-12-12T19:47:55.285Z,98406.55
2018-12-12T19:50:26.769Z,98409.08
2018-12-12T19:52:58.339Z,98406.80
2018-12-12T19:55:29.757Z,98406.97
2018-12-12T19:58:01.445Z,98403.62
2018-12-12T20:00:32.970Z,98390.80
2018-12-12T20:03:04.548Z,98387.52
2018-12-12T20:05:41.469Z,98387.34
2018-12-12T20:08:09.642Z,98389.54
2018-12-12T20:10:41.028Z,98382.73
2018-12-12T20:13:12.619Z,98389.28
2018-12-12T20:15:44.468Z,98389.23
2018-12-12T20:18:16.456Z,98394.75
2018-12-12T20:20:55.619Z,98400.83
2018-12-12T20:23:38.022Z,98403.08
2018-12-12T20:26:21.384Z,98407.49
2018-12-12T20:29:03.487Z,98411.66
2018-12-12T20:31:47.230Z,98409.11
2018-12-12T20:34:32.376Z,98415.16
2018-12-12T20:37:12.472Z,98411.53
2018-12-12T20:39:52.780Z,98412.42
2018-12-12T20:42:32.484Z,98415.84
2018-12-12T20:45:12.169Z,98411.16
2018-12-12T20:47:53.568Z,98416.72
2018-12-12T20:50:34.700Z,98416.89
2018-12-12T20:53:14.715Z,98418.09
2018-12-12T20:55:54.905Z,98419.72
2018-12-12T20:58:27.055Z,98414.80
2018-12-12T21:00:58.483Z,98412.17
2018-12-12T21:03:30.074Z,98411.32
2018-12-12T21:06:01.529Z,98406.38
2018-12-12T21:08:33.066Z,98407.22
2018-12-12T21:11:04.559Z,98408.69
2018-12-12T21:13:36.145Z,98412.70
2018-12-12T21:16:07.643Z,98414.09
2018-12-12T21:18:39.244Z,98416.60
2018-12-12T21:21:10.748Z,98405.91
2018-12-12T21:23:42.287Z,98407.24
2018-12-12T21:26:14.221Z,98405.34
2018-12-12T21:28:45.705Z,98409.09
2018-12-12T21:31:17.323Z,98405.86
2018-12-12T21:33:48.824Z,98401.84
2018-12-12T21:36:20.428Z,98396.46
2018-12-12T21:38:52.034Z,98401.83
2018-12-12T21:41:23.567Z,98394.82
2018-12-12T21:43:55.046Z,98397.09
2018-12-12T21:46:26.586Z,98393.33
2018-12-12T21:48:58.056Z,98397.45
2018-12-12T21:51:29.648Z,98398.10
2018-12-12T21:54:01.146Z,98392.14
2018-12-12T21:56:32.702Z,98391.29
2018-12-12T21:59:04.158Z,98397.76
2018-12-12T22:01:35.713Z,98396.70
2018-12-12T22:04:07.166Z,98398.95
2018-12-12T22:06:38.768Z,98395.42
2018-12-12T22:09:18.367Z,98400.87
2018-12-12T22:12:00.457Z,98391.71
2018-12-12T22:14:39.989Z,98387.86
2018-12-12T22:17:19.894Z,98384.02
2018-12-12T22:19:59.219Z,98381.03
2018-12-12T22:22:39.624Z,98387.91
2018-12-12T22:25:18.752Z,98385.55
2018-12-12T22:27:57.657Z,98385.98
2018-12-12T22:30:36.682Z,98387.30
2018-12-12T22:33:15.402Z,98380.91
2018-12-12T22:35:54.072Z,98382.58
2018-12-12T22:38:32.669Z,98380.05
2018-12-12T22:41:10.959Z,98378.58
2018-12-12T22:43:49.120Z,98373.31
2018-12-12T22:46:27.659Z,98373.45
2018-12-12T22:49:07.033Z,98372.08
2018-12-12T22:51:43.519Z,98365.98
2018-12-12T22:54:19.986Z,98368.25
2018-12-12T22:56:58.436Z,98366.52
2018-12-12T22:59:36.492Z,98369.64
2018-12-12T23:02:13.570Z,98365.94
2018-12-12T23:04:51.032Z,98363.84
2018-12-12T23:07:28.487Z,98364.45
2018-12-12T23:10:06.795Z,98376.02
2018-12-12T23:12:44.123Z,98368.97
2018-12-12T23:15:21.420Z,98361.25
2018-12-12T23:17:53.320Z,98361.72
2018-12-12T23:20:24.851Z,98375.22
2018-12-12T23:22:56.450Z,98371.97
2018-12-12T23:25:28.277Z,98367.52
2018-12-12T23:27:59.864Z,98374.62
2018-12-12T23:30:31.284Z,98363.62
2018-12-12T23:33:02.878Z,98361.00
2018-12-12T23:35:34.296Z,98365.27
2018-12-12T23:38:05.894Z,98363.46
2018-12-12T23:40:37.290Z,98359.50
2018-12-12T23:43:08.903Z,98358.48
2018-12-12T23:45:40.245Z,98364.34
2018-12-12T23:48:11.784Z,98361.47
2018-12-12T23:50:43.241Z,98359.22
2018-12-12T23:53:14.797Z,98357.21
2018-12-12T23:55:46.246Z,98349.94
2018-12-12T23:58:17.795Z,98346.27
